createdAt,value
2018-12-17T00:01:42.493Z,25.97
2018-12-17T00:04:17.729Z,26.73
2018-12-17T00:06:52.849Z,27.77
2018-12-17T00:09:27.270Z,29.77
2018-12-17T00:12:01.803Z,27.27
2018-12-17T00:14:36.339Z,24.20
2018-12-17T00:17:10.751Z,25.83
2018-12-17T00:19:45.062Z,28.10
2018-12-17T00:22:19.557Z,25.90
2018-12-17T00:24:54.041Z,24.30
2018-12-17T00:27:29.116Z,26.77
2018-12-17T00:30:04.686Z,26.80
2018-12-17T00:32:39.101Z,29.50
2018-12-17T00:35:13.456Z,27.10
2018-12-17T00:37:48.361Z,24.90
2018-12-17T00:40:22.894Z,25.60
2018-12-17T00:42:58.127Z,21.63
2018-12-17T00:45:32.640Z,23.20
2018-12-17T00:48:07.073Z,23.87
2018-12-17T00:50:41.854Z,29.33
2018-12-17T00:53:16.202Z,31.27
2018-12-17T00:55:51.477Z,27.10
2018-12-17T00:58:26.649Z,21.00
2018-12-17T01:01:01.108Z,24.27
2018-12-17T01:03:36.197Z,28.93
2018-12-17T01:06:11.410Z,27.87
2018-12-17T01:08:45.853Z,25.40
2018-12-17T01:11:20.365Z,23.53
2018-12-17T01:13:54.749Z,23.70
2018-12-17T01:16:29.696Z,25.27
2018-12-17T01:19:04.229Z,26.10
2018-12-17T01:21:38.770Z,25.70
2018-12-17T01:24:13.140Z,21.70
2018-12-17T01:26:52.042Z,22.60
2018-12-17T01:29:35.335Z,28.23
2018-12-17T01:32:09.977Z,26.67
2018-12-17T01:34:44.538Z,25.27
2018-12-17T01:37:19.501Z,19.83
2018-12-17T01:39:54.297Z,27.30
2018-12-17T01:42:29.405Z,24.50
2018-12-17T01:45:04.325Z,23.73
2018-12-17T01:47:38.707Z,29.43
2018-12-17T01:50:13.853Z,35.10
2018-12-17T01:52:48.315Z,21.47
2018-12-17T01:55:22.633Z,24.00
2018-12-17T01:57:57.649Z,24.57
2018-12-17T02:00:40.753Z,26.50
2018-12-17T02:03:15.282Z,25.37
2018-12-17T02:05:53.053Z,28.30
2018-12-17T02:08:27.552Z,32.97
2018-12-17T02:11:02.034Z,27.53
2018-12-17T02:13:37.958Z,29.23
2018-12-17T02:16:12.403Z,26.40
2018-12-17T02:18:47.232Z,28.43
2018-12-17T02:21:21.653Z,24.77
2018-12-17T02:23:56.063Z,27.67
2018-12-17T02:26:30.848Z,24.77
2018-12-17T02:29:06.114Z,26.47
2018-12-17T02:31:40.533Z,23.70
2018-12-17T02:34:14.946Z,24.80
2018-12-17T02:36:50.011Z,32.20
2018-12-17T02:39:24.973Z,26.30
2018-12-17T02:41:59.936Z,28.17
2018-12-17T02:44:34.481Z,29.10
2018-12-17T02:47:08.942Z,29.40
2018-12-17T02:49:44.239Z,22.93
2018-12-17T02:52:24.069Z,28.40
2018-12-17T02:54:58.639Z,25.73
2018-12-17T02:57:33.938Z,25.43
2018-12-17T03:00:10.297Z,24.93
2018-12-17T03:02:44.902Z,23.97
2018-12-17T03:05:19.414Z,23.70
2018-12-17T03:07:55.144Z,25.07
2018-12-17T03:10:29.577Z,28.47
2018-12-17T03:13:03.970Z,28.90
2018-12-17T03:15:39.505Z,29.70
2018-12-17T03:18:13.866Z,23.93
2018-12-17T03:20:48.590Z,36.00
2018-12-17T03:23:23.101Z,27.17
2018-12-17T03:25:58.570Z,28.03
2018-12-17T03:28:34.113Z,25.30
2018-12-17T03:31:08.690Z,30.07
2018-12-17T03:33:43.431Z,27.70
2018-12-17T03:36:19.533Z,25.93
2018-12-17T03:38:54.742Z,29.50
2018-12-17T03:41:30.605Z,33.37
2018-12-17T03:44:05.113Z,23.23
2018-12-17T03:46:39.643Z,28.00
2018-12-17T03:49:15.373Z,25.57
2018-12-17T03:51:51.121Z,31.63
2018-12-17T03:54:25.540Z,24.70
2018-12-17T03:57:00.799Z,27.00
2018-12-17T03:59:36.376Z,31.30
2018-12-17T04:02:11.037Z,28.67
2018-12-17T04:04:45.978Z,25.63
2018-12-17T04:07:20.769Z,26.80
2018-12-17T04:09:55.684Z,24.93
2018-12-17T04:12:31.279Z,26.30
2018-12-17T04:15:07.010Z,27.50
2018-12-17T04:17:41.488Z,26.87
2018-12-17T04:20:15.763Z,27.97
2018-12-17T04:22:50.202Z,26.27
2018-12-17T04:25:25.562Z,27.73
2018-12-17T04:28:01.559Z,25.80
2018-12-17T04:30:37.021Z,27.20
2018-12-17T04:33:11.564Z,25.00
2018-12-17T04:35:46.446Z,27.90
2018-12-17T04:38:22.146Z,29.27
2018-12-17T04:41:07.905Z,32.03
2018-12-17T04:43:42.205Z,36.30
2018-12-17T04:46:16.848Z,31.53
2018-12-17T04:48:51.147Z,24.13
2018-12-17T04:51:26.513Z,26.60
2018-12-17T04:54:00.933Z,30.50
2018-12-17T04:56:36.473Z,27.70
2018-12-17T04:59:14.854Z,26.17
2018-12-17T05:01:49.416Z,24.47
2018-12-17T05:04:23.858Z,30.37
2018-12-17T05:06:58.369Z,28.67
2018-12-17T05:09:32.742Z,25.90
2018-12-17T05:12:08.761Z,29.20
2018-12-17T05:14:44.649Z,26.87
2018-12-17T05:17:19.445Z,28.47
2018-12-17T05:19:55.052Z,27.73
2018-12-17T05:22:29.634Z,29.00
2018-12-17T05:25:05.980Z,33.83
2018-12-17T05:27:41.626Z,31.20
2018-12-17T05:30:18.112Z,30.27
2018-12-17T05:32:52.582Z,34.03
2018-12-17T05:35:26.881Z,30.80
2018-12-17T05:38:02.229Z,34.23
2018-12-17T05:40:36.633Z,36.60
2018-12-17T05:43:11.737Z,35.80
2018-12-17T05:45:46.237Z,33.60
2018-12-17T05:48:20.705Z,31.77
2018-12-17T05:50:55.765Z,28.13
2018-12-17T05:53:30.356Z,32.20
2018-12-17T05:56:04.731Z,41.20
2018-12-17T05:58:40.288Z,39.90
2018-12-17T06:01:14.741Z,34.77
2018-12-17T06:03:49.232Z,38.73
2018-12-17T06:06:23.625Z,35.30
2018-12-17T06:08:58.943Z,28.83
2018-12-17T06:11:34.516Z,31.23
2018-12-17T06:14:09.616Z,37.67
2018-12-17T06:16:43.998Z,46.67
2018-12-17T06:19:18.337Z,42.47
2018-12-17T06:21:52.710Z,45.00
2018-12-17T06:24:27.713Z,40.47
2018-12-17T06:27:03.780Z,42.83
2018-12-17T06:29:39.053Z,43.03
2018-12-17T06:32:13.486Z,39.13
2018-12-17T06:34:47.856Z,40.50
2018-12-17T06:37:23.028Z,39.60
2018-12-17T06:39:57.961Z,43.50
2018-12-17T06:42:33.094Z,45.63
2018-12-17T06:45:15.464Z,52.07
2018-12-17T06:47:49.841Z,45.00
2018-12-17T06:50:24.638Z,34.77
2018-12-17T06:52:59.203Z,48.10
2018-12-17T06:55:33.630Z,39.57
2018-12-17T06:58:09.417Z,46.80
2018-12-17T07:00:44.346Z,38.20
2018-12-17T07:03:19.475Z,47.13
2018-12-17T07:05:54.014Z,47.50
2018-12-17T07:08:28.411Z,49.57
2018-12-17T07:11:03.485Z,43.13
2018-12-17T07:13:38.257Z,40.57
2018-12-17T07:16:12.625Z,45.77
2018-12-17T07:18:46.945Z,34.73
2018-12-17T07:21:21.417Z,36.57
2018-12-17T07:23:58.912Z,41.53
2018-12-17T07:26:33.069Z,39.57
2018-12-17T07:29:07.933Z,46.63
2018-12-17T07:31:43.062Z,38.90
2018-12-17T07:34:17.404Z,40.13
2018-12-17T07:36:52.540Z,46.23
2018-12-17T07:39:27.904Z,46.33
2018-12-17T07:42:03.890Z,34.20
2018-12-17T07:44:38.369Z,44.20
2018-12-17T07:47:13.561Z,41.57
2018-12-17T07:49:48.618Z,37.03
2018-12-17T07:52:23.233Z,40.40
2018-12-17T07:54:57.749Z,36.97
2018-12-17T07:57:32.882Z,50.20
2018-12-17T08:00:08.312Z,46.67
2018-12-17T08:02:42.761Z,30.80
2018-12-17T08:05:17.190Z,41.90
2018-12-17T08:07:51.570Z,37.63
2018-12-17T08:10:26.117Z,48.00
2018-12-17T08:13:01.157Z,32.90
2018-12-17T08:15:36.229Z,33.53
2018-12-17T08:18:22.169Z,35.77
2018-12-17T08:20:56.564Z,39.03
2018-12-17T08:23:31.677Z,35.60
2018-12-17T08:26:06.051Z,43.60
2018-12-17T08:28:40.977Z,36.40
2018-12-17T08:31:15.297Z,36.27
2018-12-17T08:33:50.537Z,29.60
2018-12-17T08:36:25.889Z,37.90
2018-12-17T08:39:01.234Z,31.50
2018-12-17T08:41:36.204Z,35.17
2018-12-17T08:44:10.793Z,27.43
2018-12-17T08:46:45.142Z,31.33
2018-12-17T08:49:20.660Z,26.83
2018-12-17T08:51:55.180Z,29.27
2018-12-17T08:54:30.141Z,25.63
2018-12-17T08:57:05.348Z,29.50
2018-12-17T08:59:40.600Z,33.40
2018-12-17T09:02:15.065Z,27.63
2018-12-17T09:04:49.365Z,28.53
2018-12-17T09:07:23.890Z,38.17
2018-12-17T09:09:58.196Z,29.43
2018-12-17T09:12:33.305Z,34.97
2018-12-17T09:15:08.873Z,29.30
2018-12-17T09:17:43.277Z,31.20
2018-12-17T09:22:58.573Z,36.63
2018-12-17T09:25:33.018Z,30.37
2018-12-17T09:28:08.541Z,35.77
2018-12-17T09:30:42.769Z,39.73
2018-12-17T09:33:17.109Z,38.13
2018-12-17T09:35:51.600Z,34.10
2018-12-17T09:38:27.043Z,35.03
2018-12-17T09:41:08.857Z,35.73
2018-12-17T09:43:43.176Z,36.23
2018-12-17T09:46:17.705Z,37.57
2018-12-17T09:48:52.929Z,29.73
2018-12-17T09:51:27.952Z,31.10
2018-12-17T09:54:02.329Z,25.03
2018-12-17T09:56:36.706Z,32.97
2018-12-17T09:59:11.657Z,32.17
2018-12-17T10:01:49.352Z,27.30
2018-12-17T10:04:24.585Z,30.43
2018-12-17T10:06:59.069Z,29.93
2018-12-17T10:09:33.585Z,27.17
2018-12-17T10:12:08.623Z,24.47
2018-12-17T10:14:43.902Z,31.80
2018-12-17T10:17:18.418Z,19.07
2018-12-17T10:19:53.613Z,24.90
2018-12-17T10:22:28.151Z,18.70
2018-12-17T10:25:02.513Z,23.77
2018-12-17T10:27:37.708Z,27.57
2018-12-17T10:30:13.393Z,20.30
2018-12-17T10:32:47.802Z,24.80
2018-12-17T10:35:22.134Z,22.47
2018-12-17T10:37:57.385Z,25.10
2018-12-17T10:40:33.733Z,20.50
2018-12-17T10:43:08.726Z,21.33
2018-12-17T10:45:43.182Z,23.63
2018-12-17T10:48:17.769Z,24.13
2018-12-17T10:50:52.545Z,19.57
2018-12-17T10:53:26.968Z,20.63
2018-12-17T10:56:01.296Z,20.13
2018-12-17T10:58:36.022Z,18.47
2018-12-17T11:01:16.501Z,14.50
2018-12-17T11:03:54.845Z,20.97
2018-12-17T11:06:29.277Z,20.03
2018-12-17T11:09:04.926Z,18.37
2018-12-17T11:11:39.693Z,21.50
2018-12-17T11:14:15.133Z,14.53
2018-12-17T11:16:49.468Z,19.00
2018-12-17T11:19:24.486Z,19.70
2018-12-17T11:21:59.067Z,13.13
2018-12-17T11:24:33.631Z,18.53
2018-12-17T11:27:08.887Z,17.23
2018-12-17T11:29:44.065Z,19.80
2018-12-17T11:32:18.545Z,15.27
2018-12-17T11:34:52.957Z,22.07
2018-12-17T11:37:35.597Z,16.57
2018-12-17T11:40:10.038Z,14.07
2018-12-17T11:42:45.258Z,13.37
2018-12-17T11:45:19.882Z,13.63
2018-12-17T11:47:54.441Z,15.37
2018-12-17T11:50:29.325Z,11.97
2018-12-17T11:53:04.144Z,15.43
2018-12-17T11:55:38.793Z,13.10
2018-12-17T11:58:14.933Z,14.10
2018-12-17T12:00:57.580Z,10.20
2018-12-17T12:03:33.747Z,9.63
2018-12-17T12:06:13.842Z,10.60
2018-12-17T12:08:45.176Z,13.10
2018-12-17T12:11:20.370Z,12.10
2018-12-17T12:13:55.597Z,10.50
2018-12-17T12:16:30.534Z,10.90
2018-12-17T12:19:05.694Z,8.43
2018-12-17T12:21:40.133Z,11.07
2018-12-17T12:24:14.610Z,11.40
2018-12-17T12:26:53.990Z,13.10
2018-12-17T12:29:28.755Z,10.70
2018-12-17T12:32:03.289Z,13.87
2018-12-17T12:34:37.738Z,9.57
2018-12-17T12:37:13.010Z,8.43
2018-12-17T12:39:47.939Z,11.27
2018-12-17T12:42:23.026Z,9.60
2018-12-17T12:44:57.765Z,13.07
2018-12-17T12:47:32.187Z,9.27
2018-12-17T12:50:08.961Z,9.10
2018-12-17T12:52:43.273Z,12.87
2018-12-17T12:55:17.688Z,15.27
2018-12-17T12:57:53.227Z,9.30
2018-12-17T13:00:37.011Z,9.83
2018-12-17T13:03:11.339Z,11.07
2018-12-17T13:05:46.174Z,8.70
2018-12-17T13:08:20.962Z,10.90
2018-12-17T13:10:56.721Z,10.70
2018-12-17T13:13:38.309Z,8.70
2018-12-17T13:16:13.521Z,8.13
2018-12-17T13:18:48.735Z,10.80
2018-12-17T13:21:23.164Z,8.23
2018-12-17T13:23:57.508Z,12.97
2018-12-17T13:26:32.809Z,8.17
2018-12-17T13:29:08.729Z,9.73
2018-12-17T13:31:43.225Z,9.20
2018-12-17T13:34:17.582Z,11.87
2018-12-17T13:36:53.815Z,8.57
2018-12-17T13:39:29.235Z,10.20
2018-12-17T13:42:04.305Z,7.27
2018-12-17T13:44:39.354Z,9.60
2018-12-17T13:47:13.852Z,6.73
2018-12-17T13:49:51.736Z,8.17
2018-12-17T13:52:36.795Z,9.97
2018-12-17T13:55:11.797Z,10.20
2018-12-17T13:57:47.933Z,8.40
2018-12-17T14:00:24.138Z,8.60
2018-12-17T14:02:58.632Z,7.73
2018-12-17T14:05:33.213Z,8.73
2018-12-17T14:08:07.592Z,9.83
2018-12-17T14:10:52.662Z,10.23
2018-12-17T14:13:35.401Z,10.43
2018-12-17T14:16:16.327Z,9.33
2018-12-17T14:18:58.032Z,8.90
2018-12-17T14:21:38.077Z,9.10
2018-12-17T14:24:12.537Z,8.83
2018-12-17T14:26:54.619Z,11.23
2018-12-17T14:29:30.971Z,7.77
2018-12-17T14:32:05.527Z,9.27
2018-12-17T14:34:40.124Z,10.40
2018-12-17T14:37:16.621Z,13.27
2018-12-17T14:39:51.136Z,8.77
2018-12-17T14:42:27.093Z,12.23
2018-12-17T14:45:01.758Z,8.63
2018-12-17T14:47:36.557Z,9.90
2018-12-17T14:50:13.006Z,10.23
2018-12-17T14:52:47.469Z,8.10
2018-12-17T14:55:22.244Z,12.23
2018-12-17T14:57:57.523Z,9.40
2018-12-17T15:00:33.367Z,12.30
2018-12-17T15:03:07.865Z,9.87
2018-12-17T15:05:44.484Z,9.27
2018-12-17T15:08:18.891Z,10.33
2018-12-17T15:10:55.810Z,8.73
2018-12-17T15:13:38.374Z,10.07
2018-12-17T15:16:17.093Z,8.70
2018-12-17T15:18:52.018Z,6.90
2018-12-17T15:21:27.615Z,11.70
2018-12-17T15:24:02.771Z,6.67
2018-12-17T15:26:37.390Z,10.40
2018-12-17T15:29:13.558Z,12.27
2018-12-17T15:31:48.285Z,8.93
2018-12-17T15:34:22.702Z,7.53
2018-12-17T15:36:57.926Z,9.60
2018-12-17T15:39:32.613Z,7.70
2018-12-17T15:42:08.890Z,10.93
2018-12-17T15:44:45.365Z,8.03
2018-12-17T15:47:19.769Z,8.40
2018-12-17T15:49:56.175Z,8.90
2018-12-17T15:52:32.269Z,10.13
2018-12-17T15:55:06.933Z,14.17
2018-12-17T15:57:41.425Z,10.67
2018-12-17T16:00:16.662Z,12.73
2018-12-17T16:02:50.955Z,9.10
2018-12-17T16:05:25.635Z,8.67
2018-12-17T16:08:00.097Z,14.13
2018-12-17T16:10:34.573Z,10.17
2018-12-17T16:13:10.760Z,9.73
2018-12-17T16:15:48.313Z,9.40
2018-12-17T16:18:22.646Z,9.97
2018-12-17T16:20:57.490Z,7.10
2018-12-17T16:23:31.982Z,12.30
2018-12-17T16:26:06.568Z,15.67
2018-12-17T16:28:43.002Z,13.23
2018-12-17T16:31:17.566Z,12.13
2018-12-17T16:33:52.096Z,14.20
2018-12-17T16:36:39.014Z,13.30
2018-12-17T16:39:13.456Z,16.07
2018-12-17T16:41:49.605Z,9.90
2018-12-17T16:44:24.007Z,12.13
2018-12-17T16:46:58.497Z,10.40
2018-12-17T16:49:35.412Z,15.70
2018-12-17T16:52:10.188Z,13.47
2018-12-17T16:54:47.197Z,13.90
2018-12-17T16:57:22.057Z,13.77
2018-12-17T16:59:58.125Z,14.93
2018-12-17T17:02:32.599Z,13.17
2018-12-17T17:05:07.745Z,20.13
2018-12-17T17:07:42.085Z,12.93
2018-12-17T17:10:16.860Z,16.57
2018-12-17T17:12:53.365Z,18.50
2018-12-17T17:15:30.441Z,18.20
2018-12-17T17:18:04.664Z,15.10
2018-12-17T17:20:39.313Z,15.93
2018-12-17T17:23:20.753Z,13.87
2018-12-17T17:25:56.348Z,12.53
2018-12-17T17:28:32.789Z,20.50
2018-12-17T17:31:09.413Z,14.20
2018-12-17T17:33:44.194Z,12.93
2018-12-17T17:39:09.316Z,20.67
2018-12-17T17:41:46.247Z,13.27
2018-12-17T17:44:20.709Z,11.40
2018-12-17T17:46:56.714Z,19.73
2018-12-17T17:49:33.753Z,13.67
2018-12-17T17:52:08.790Z,14.47
2018-12-17T17:54:54.029Z,10.67
2018-12-17T17:57:29.532Z,11.80
2018-12-17T18:00:07.916Z,12.57
2018-12-17T18:02:43.099Z,13.20
2018-12-17T18:05:19.420Z,10.20
2018-12-17T18:07:53.806Z,13.33
2018-12-17T18:10:28.379Z,9.67
2018-12-17T18:13:05.265Z,14.47
2018-12-17T18:15:43.183Z,17.93
2018-12-17T18:18:17.847Z,15.10
2018-12-17T18:20:54.386Z,17.77
2018-12-17T18:23:28.965Z,18.43
2018-12-17T18:26:05.517Z,19.23
2018-12-17T18:28:42.133Z,15.57
2018-12-17T18:31:18.179Z,14.67
2018-12-17T18:33:53.520Z,17.13
2018-12-17T18:36:42.405Z,16.80
2018-12-17T18:39:17.258Z,13.67
2018-12-17T18:41:54.223Z,15.93
2018-12-17T18:44:28.785Z,11.87
2018-12-17T18:47:03.730Z,14.90
2018-12-17T18:49:39.961Z,15.03
2018-12-17T18:52:15.149Z,13.57
2018-12-17T18:54:52.940Z,15.00
2018-12-17T18:57:27.686Z,15.37
2018-12-17T19:00:04.783Z,16.17
2018-12-17T19:02:39.617Z,11.90
2018-12-17T19:05:14.038Z,16.77
2018-12-17T19:07:50.241Z,18.57
2018-12-17T19:10:33.950Z,18.40
2018-12-17T19:13:10.753Z,15.10
2018-12-17T19:15:48.097Z,17.60
2018-12-17T19:18:22.475Z,14.93
2018-12-17T19:20:57.274Z,11.47
2018-12-17T19:23:33.144Z,15.57
2018-12-17T19:26:08.249Z,17.43
2018-12-17T19:28:44.900Z,18.33
2018-12-17T19:31:19.986Z,15.27
2018-12-17T19:33:54.994Z,16.03
2018-12-17T19:36:42.433Z,11.47
2018-12-17T19:39:17.087Z,19.13
2018-12-17T19:41:53.385Z,14.50
2018-12-17T19:44:28.282Z,13.80
2018-12-17T19:47:03.395Z,16.30
2018-12-17T19:49:40.652Z,12.97
2018-12-17T19:52:16.345Z,16.23
2018-12-17T19:54:54.497Z,16.47
2018-12-17T19:57:31.257Z,16.03
2018-12-17T20:00:09.127Z,13.80
2018-12-17T20:02:47.176Z,17.60
2018-12-17T20:05:21.157Z,16.23
2018-12-17T20:07:56.206Z,19.70
2018-12-17T20:10:31.194Z,14.90
2018-12-17T20:13:07.603Z,23.30
2018-12-17T20:15:44.551Z,16.37
2018-12-17T20:18:21.288Z,16.10
2018-12-17T20:20:57.142Z,22.63
2018-12-17T20:23:33.081Z,17.97
2018-12-17T20:26:07.889Z,14.97
2018-12-17T20:28:44.460Z,19.40
2018-12-17T20:31:19.069Z,18.77
2018-12-17T20:33:53.588Z,19.67
2018-12-17T20:36:43.073Z,29.77
2018-12-17T20:39:17.726Z,25.97
2018-12-17T20:41:54.192Z,17.33
2018-12-17T20:44:28.563Z,17.90
2018-12-17T20:47:04.673Z,17.30
2018-12-17T20:49:41.345Z,20.87
2018-12-17T20:52:15.857Z,20.03
2018-12-17T20:54:51.917Z,19.33
2018-12-17T20:57:26.617Z,20.63
2018-12-17T21:00:02.862Z,15.33
2018-12-17T21:02:37.524Z,18.63
2018-12-17T21:05:11.995Z,16.83
2018-12-17T21:07:47.078Z,16.90
2018-12-17T21:10:21.499Z,17.20
2018-12-17T21:12:58.493Z,23.30
2018-12-17T21:15:34.792Z,19.93
2018-12-17T21:18:11.033Z,19.47
2018-12-17T21:20:45.561Z,16.77
2018-12-17T21:23:20.490Z,16.07
2018-12-17T21:25:55.017Z,16.50
2018-12-17T21:28:31.777Z,17.50
2018-12-17T21:31:06.183Z,19.10
2018-12-17T21:33:43.305Z,17.27
2018-12-17T21:36:19.409Z,20.60
2018-12-17T21:38:55.853Z,14.33
2018-12-17T21:41:31.165Z,19.70
2018-12-17T21:44:06.024Z,15.67
2018-12-17T21:46:40.955Z,19.07
2018-12-17T21:49:16.801Z,15.40
2018-12-17T21:51:51.605Z,17.17
2018-12-17T21:54:26.184Z,17.23
2018-12-17T21:57:01.632Z,15.83
2018-12-17T21:59:37.327Z,22.30
2018-12-17T22:02:12.423Z,19.00
2018-12-17T22:04:46.877Z,19.50
2018-12-17T22:07:21.526Z,20.73
2018-12-17T22:09:55.869Z,18.33
2018-12-17T22:12:31.109Z,14.57
2018-12-17T22:15:06.683Z,17.00
2018-12-17T22:17:41.679Z,15.00
2018-12-17T22:20:16.234Z,14.07
2018-12-17T22:22:51.617Z,16.73
2018-12-17T22:25:26.053Z,15.37
2018-12-17T22:28:02.317Z,14.80
2018-12-17T22:30:36.756Z,13.03
2018-12-17T22:33:11.160Z,16.80
2018-12-17T22:35:46.595Z,13.63
2018-12-17T22:38:21.829Z,13.10
2018-12-17T22:41:04.879Z,14.20
2018-12-17T22:43:40.327Z,15.07
2018-12-17T22:46:14.830Z,21.50
2018-12-17T22:48:49.977Z,14.67
2018-12-17T22:51:24.446Z,15.40
2018-12-17T22:53:58.806Z,13.40
2018-12-17T22:56:34.321Z,19.10
2018-12-17T22:59:08.862Z,17.70
2018-12-17T23:01:44.386Z,16.67
2018-12-17T23:04:18.741Z,15.20
2018-12-17T23:06:53.176Z,15.83
2018-12-17T23:09:26.544Z,16.00
2018-12-17T23:12:12.907Z,14.83
2018-12-17T23:14:59.572Z,14.20
2018-12-17T23:17:41.105Z,16.50
2018-12-17T23:20:15.993Z,13.40
2018-12-17T23:22:50.326Z,18.00
2018-12-17T23:25:24.625Z,14.40
2018-12-17T23:28:02.360Z,14.23
2018-12-17T23:30:36.714Z,13.77
2018-12-17T23:33:11.522Z,13.57
2018-12-17T23:35:46.635Z,17.00
2018-12-17T23:38:22.142Z,15.27
2018-12-17T23:41:05.590Z,17.80
2018-12-17T23:43:40.113Z,17.47
2018-12-17T23:46:14.393Z,12.37
2018-12-17T23:48:49.323Z,15.60
2018-12-17T23:51:23.745Z,15.60
2018-12-17T23:53:58.415Z,16.63
2018-12-17T23:56:33.461Z,16.53
2018-12-17T23:59:08.691Z,13.33
